Martine P — 2FIL4 — position and weather

sailwx.info

Track history (hours):
 
Tides and Currents Weather Stations Pressure Air Temp Water Temp Dewpoint Dewpoint Depression Visibility Wind Speed Wind Dir Waves Ship Positions

Martine P

Last reported at 2017-Mar-27 03:15 UTC. Time now 2017-Mar-28 21:25 UTC.
Position N 39°23' W 009°49'.

Length 27 m; draft 3 m.

Type: Tug. MMSI: 235091541.

Date/timePositionNaut miles runAvg speedWind from/ knotsBaromVisibWave heightAir tempDewpointWater temp
2017-Mar-27 03:15N 39°23' W 009°49'6 8.2
2017-Mar-27 02:33N 39°17' W 009°49'8 8.3
2017-Mar-27 01:33N 39°09' W 009°49'8 8.2
2017-Mar-27 00:33N 39°01' W 009°50'8 8.3
2017-Mar-26 23:33N 38°52' W 009°50'8 8.3
2017-Mar-26 22:33N 38°44' W 009°50'7 7.5
2017-Mar-26 21:33N 38°37' W 009°46'7 6.9
2017-Mar-26 20:33N 38°31' W 009°43'7 6.8
2017-Mar-26 19:33N 38°24' W 009°40'7 6.8
2017-Mar-26 18:33N 38°18' W 009°37'10 7.7
2017-Mar-26 17:19N 38°08' W 009°36'7 8.4
2017-Mar-26 16:32N 38°02' W 009°34'232 6.8
2017-Mar-25 06:33N 36°04' W 005°23'5 0.1
2017-Mar-23 14:33N 36°09' W 005°22'0 0.0
2017-Mar-23 13:33N 36°09' W 005°22'0 0.0
2017-Mar-23 12:33N 36°09' W 005°22'0 0.0
2017-Mar-23 11:33N 36°09' W 005°22'0 0.0
2017-Mar-23 10:33N 36°09' W 005°22'0 0.0
2017-Mar-23 09:33N 36°09' W 005°22'0 0.0
2017-Mar-23 08:33N 36°09' W 005°22'0 0.0
2017-Mar-23 07:33N 36°09' W 005°22'0 0.0
2017-Mar-23 06:33N 36°09' W 005°22'0 0.0
2017-Mar-23 05:33N 36°09' W 005°22'0 0.0
2017-Mar-23 04:33N 36°09' W 005°22'1 1.1
2017-Mar-23 03:33N 36°08' W 005°22'5 4.7
2017-Mar-23 02:33N 36°05' W 005°17'  
Track history (hours):
 
Tides and Currents Weather Stations Pressure Air Temp Water Temp Dewpoint Dewpoint Depression Visibility Wind Speed Wind Dir Waves Ship Positions

Martine P

Last reported at 2017-Mar-27 03:15 UTC. Time now 2017-Mar-28 21:25 UTC.
Position N 39°23' W 009°49'.

Length 27 m; draft 3 m.

Type: Tug. MMSI: 235091541.

Date/timePositionNaut miles runAvg speedWind from/ knotsBaromVisibWave heightAir tempDewpointWater temp
2017-Mar-27 03:15N 39°23' W 009°49'6 8.2
2017-Mar-27 02:33N 39°17' W 009°49'8 8.3
2017-Mar-27 01:33N 39°09' W 009°49'8 8.2
2017-Mar-27 00:33N 39°01' W 009°50'8 8.3
2017-Mar-26 23:33N 38°52' W 009°50'8 8.3
2017-Mar-26 22:33N 38°44' W 009°50'7 7.5
2017-Mar-26 21:33N 38°37' W 009°46'7 6.9
2017-Mar-26 20:33N 38°31' W 009°43'7 6.8
2017-Mar-26 19:33N 38°24' W 009°40'7 6.8
2017-Mar-26 18:33N 38°18' W 009°37'10 7.7
2017-Mar-26 17:19N 38°08' W 009°36'7 8.4
2017-Mar-26 16:32N 38°02' W 009°34'232 6.8
2017-Mar-25 06:33N 36°04' W 005°23'5 0.1
2017-Mar-23 14:33N 36°09' W 005°22'0 0.0
2017-Mar-23 13:33N 36°09' W 005°22'0 0.0
2017-Mar-23 12:33N 36°09' W 005°22'0 0.0
2017-Mar-23 11:33N 36°09' W 005°22'0 0.0
2017-Mar-23 10:33N 36°09' W 005°22'0 0.0
2017-Mar-23 09:33N 36°09' W 005°22'0 0.0
2017-Mar-23 08:33N 36°09' W 005°22'0 0.0
2017-Mar-23 07:33N 36°09' W 005°22'0 0.0
2017-Mar-23 06:33N 36°09' W 005°22'0 0.0
2017-Mar-23 05:33N 36°09' W 005°22'0 0.0
2017-Mar-23 04:33N 36°09' W 005°22'1 1.1
2017-Mar-23 03:33N 36°08' W 005°22'5 4.7
2017-Mar-23 02:33N 36°05' W 005°17'  

Dump ship's entire track history